PWSweather.com
Personal Weather Stations
Station Observations
J24K28P63
Vysocina, PocatkyCZ 39464

VysocinaPocatkyCZ 39464

Lat: 49.2594238, Lon: 15.2331769

Elevation: 2011

Station Type: Vantage Pro2+

http://meteo-jirkalina.com

High Low Average
Temperature 72.0°F22.2°C 46.1°F7.8°C 60.7°F15.9°C
Dew Point 58.4°F14.7°C 41.3°F5.2°C 52.1°F11.2°C
Winds 9.0 mph 14.5 kmh Calm Calm 2.0 mph S3.2 kmh S
Wind Gusts 12.0 mph19.3 kmh -- 3.0 mph4.8 kmh
Humidity 100% 40% 75%
Pressure 30.15 in1021.0 mb 30.02 in1016.6 mb -
Precipitation 0.41 in10.4 mm - -
Hour Temp Dew Point Humidity Winds Wind Gusts Pressure Precip Precip Rate Daily Precip Total
12:00 AM 50.2°F10.1°C 48.8°F9.3°C 95% Calm Calm -- 30.03 in1016.9 mb - 0.00 in0.0 mm 0.00 in0.0 mm
12:30 AM 49.7°F9.8°C 48.6°F9.2°C 96% 3.8 mph NE6.1 kmh NE 5.0 mph8.0 kmh 30.03 in1016.9 mb - 0.00 in0.0 mm 0.00 in0.0 mm
01:00 AM 49.8°F9.9°C 49.0°F9.4°C 97% 3.5 mph NNE5.6 kmh NNE 4.0 mph6.4 kmh 30.03 in1016.9 mb - 0.00 in0.0 mm 0.00 in0.0 mm
01:30 AM 49.3°F9.6°C 48.5°F9.2°C 97% 3.3 mph NE5.3 kmh NE 6.0 mph9.7 kmh 30.03 in1016.9 mb - 0.00 in0.0 mm 0.00 in0.0 mm
02:00 AM 49.2°F9.6°C 48.7°F9.3°C 98% 3.8 mph NNE6.1 kmh NNE 5.0 mph8.0 kmh 30.03 in1016.9 mb - 0.00 in0.0 mm 0.00 in0.0 mm
02:30 AM 48.9°F9.4°C 48.4°F9.1°C 98% Calm Calm -- 30.02 in1016.6 mb - 0.00 in0.0 mm 0.00 in0.0 mm
03:00 AM 48.5°F9.2°C 48.0°F8.9°C 98% 0.2 mph NNE0.3 kmh NNE 3.0 mph4.8 kmh 30.02 in1016.6 mb - 0.00 in0.0 mm 0.00 in0.0 mm
03:30 AM 48.0°F8.9°C 47.7°F8.7°C 99% 3.9 mph NNE6.3 kmh NNE 5.0 mph8.0 kmh 30.02 in1016.6 mb - 0.00 in0.0 mm 0.00 in0.0 mm
04:00 AM 47.7°F8.7°C 47.4°F8.6°C 99% 4.5 mph NNE7.2 kmh NNE 6.0 mph9.7 kmh 30.02 in1016.6 mb - 0.00 in0.0 mm 0.00 in0.0 mm
04:30 AM 46.1°F7.8°C 45.0°F7.2°C 96% 1.0 mph WNW1.6 kmh WNW 1.0 mph1.6 kmh 30.11 in1019.6 mb - 0.00 in0.0 mm 0.00 in0.0 mm
04:40 AM 46.1°F7.8°C 45.0°F7.2°C 96% 1.0 mph WNW1.6 kmh WNW 2.0 mph3.2 kmh 30.11 in1019.6 mb - 0.00 in0.0 mm 0.00 in0.0 mm
04:50 AM 46.2°F7.9°C 45.1°F7.3°C 96% 1.0 mph WNW1.6 kmh WNW 3.0 mph4.8 kmh 30.11 in1019.6 mb - 0.00 in0.0 mm 0.00 in0.0 mm
05:00 AM 46.4°F8.0°C 45.3°F7.4°C 96% 2.0 mph WNW3.2 kmh WNW 3.0 mph4.8 kmh 30.11 in1019.6 mb - 0.00 in0.0 mm 0.00 in0.0 mm
05:10 AM 46.7°F8.2°C 45.6°F7.6°C 96% 2.0 mph WNW3.2 kmh WNW 3.0 mph4.8 kmh 30.12 in1020.0 mb - 0.00 in0.0 mm 0.00 in0.0 mm
05:20 AM 47.1°F8.4°C 46.0°F7.8°C 96% Calm Calm 2.0 mph3.2 kmh 30.12 in1020.0 mb - 0.00 in0.0 mm 0.00 in0.0 mm
05:30 AM 47.6°F8.7°C 46.5°F8.1°C 96% 1.0 mph WNW1.6 kmh WNW 3.0 mph4.8 kmh 30.12 in1020.0 mb - 0.00 in0.0 mm 0.00 in0.0 mm
05:40 AM 48.1°F8.9°C 46.7°F8.2°C 95% 2.0 mph WNW3.2 kmh WNW 3.0 mph4.8 kmh 30.12 in1020.0 mb - 0.00 in0.0 mm 0.00 in0.0 mm
05:50 AM 49.0°F9.4°C 47.6°F8.7°C 95% 2.0 mph WNW3.2 kmh WNW 3.0 mph4.8 kmh 30.12 in1020.0 mb - 0.00 in0.0 mm 0.00 in0.0 mm
06:00 AM 50.6°F10.3°C 48.6°F9.2°C 93% 2.0 mph WNW3.2 kmh WNW 6.0 mph9.7 kmh 30.13 in1020.3 mb - 0.00 in0.0 mm 0.00 in0.0 mm
06:10 AM 51.9°F11.1°C 49.3°F9.6°C 91% 2.0 mph WNW3.2 kmh WNW 3.0 mph4.8 kmh 30.13 in1020.3 mb - 0.00 in0.0 mm 0.00 in0.0 mm
06:20 AM 52.8°F11.6°C 49.3°F9.6°C 88% 2.0 mph W3.2 kmh W 3.0 mph4.8 kmh 30.13 in1020.3 mb - 0.00 in0.0 mm 0.00 in0.0 mm
06:30 AM 53.5°F11.9°C 49.4°F9.7°C 86% 5.0 mph W8.0 kmh W 7.0 mph11.3 kmh 30.13 in1020.3 mb - 0.00 in0.0 mm 0.00 in0.0 mm
06:40 AM 54.5°F12.5°C 49.8°F9.9°C 84% 2.0 mph W3.2 kmh W 3.0 mph4.8 kmh 30.13 in1020.3 mb - 0.00 in0.0 mm 0.00 in0.0 mm
06:50 AM 55.4°F13.0°C 50.0°F10.0°C 82% 2.0 mph W3.2 kmh W 3.0 mph4.8 kmh 30.13 in1020.3 mb - 0.00 in0.0 mm 0.00 in0.0 mm
07:00 AM 56.1°F13.4°C 50.3°F10.2°C 81% 1.0 mph W1.6 kmh W 3.0 mph4.8 kmh 30.13 in1020.3 mb - 0.00 in0.0 mm 0.00 in0.0 mm
07:10 AM 56.8°F13.8°C 50.4°F10.2°C 79% 2.0 mph W3.2 kmh W 6.0 mph9.7 kmh 30.14 in1020.7 mb - 0.00 in0.0 mm 0.00 in0.0 mm
07:20 AM 57.0°F13.9°C 50.6°F10.3°C 79% 2.0 mph W3.2 kmh W 3.0 mph4.8 kmh 30.14 in1020.7 mb - 0.00 in0.0 mm 0.00 in0.0 mm
07:30 AM 58.0°F14.4°C 51.5°F10.8°C 79% 2.0 mph W3.2 kmh W 3.0 mph4.8 kmh 30.14 in1020.7 mb - 0.00 in0.0 mm 0.00 in0.0 mm
07:40 AM 58.3°F14.6°C 50.8°F10.4°C 76% 3.0 mph WNW4.8 kmh WNW 7.0 mph11.3 kmh 30.14 in1020.7 mb - 0.00 in0.0 mm 0.00 in0.0 mm
07:50 AM 59.0°F15.0°C 51.8°F11.0°C 77% 3.0 mph WNW4.8 kmh WNW 5.0 mph8.0 kmh 30.14 in1020.7 mb - 0.00 in0.0 mm 0.00 in0.0 mm
08:00 AM 59.8°F15.4°C 52.2°F11.2°C 76% 1.0 mph WNW1.6 kmh WNW 5.0 mph8.0 kmh 30.14 in1020.7 mb - 0.00 in0.0 mm 0.00 in0.0 mm
08:10 AM 60.9°F16.1°C 52.9°F11.6°C 75% 1.0 mph WNW1.6 kmh WNW 3.0 mph4.8 kmh 30.14 in1020.7 mb - 0.00 in0.0 mm 0.00 in0.0 mm
08:20 AM 61.5°F16.4°C 52.4°F11.3°C 72% 2.0 mph WNW3.2 kmh WNW 3.0 mph4.8 kmh 30.14 in1020.7 mb - 0.00 in0.0 mm 0.00 in0.0 mm
08:30 AM 60.7°F15.9°C 51.7°F10.9°C 72% 1.0 mph WNW1.6 kmh WNW 3.0 mph4.8 kmh 30.14 in1020.7 mb - 0.00 in0.0 mm 0.00 in0.0 mm
08:40 AM 62.6°F17.0°C 53.0°F11.7°C 71% 1.0 mph WNW1.6 kmh WNW 3.0 mph4.8 kmh 30.14 in1020.7 mb - 0.00 in0.0 mm 0.00 in0.0 mm
08:50 AM 63.4°F17.4°C 53.5°F11.9°C 70% 2.0 mph WNW3.2 kmh WNW 3.0 mph4.8 kmh 30.14 in1020.7 mb - 0.00 in0.0 mm 0.00 in0.0 mm
09:00 AM 63.9°F17.7°C 53.1°F11.7°C 68% 3.0 mph WNW4.8 kmh WNW 3.0 mph4.8 kmh 30.15 in1021.0 mb - 0.00 in0.0 mm 0.00 in0.0 mm
09:10 AM 63.9°F17.7°C 54.3°F12.4°C 71% 3.0 mph WNW4.8 kmh WNW 3.0 mph4.8 kmh 30.15 in1021.0 mb - 0.00 in0.0 mm 0.00 in0.0 mm
09:20 AM 63.6°F17.6°C 53.6°F12.0°C 70% 1.0 mph WNW1.6 kmh WNW 2.0 mph3.2 kmh 30.14 in1020.7 mb - 0.00 in0.0 mm 0.00 in0.0 mm
09:30 AM 64.0°F17.8°C 53.6°F12.0°C 69% 1.0 mph WNW1.6 kmh WNW 2.0 mph3.2 kmh 30.14 in1020.7 mb - 0.00 in0.0 mm 0.00 in0.0 mm
09:40 AM 63.5°F17.5°C 53.5°F11.9°C 70% 3.0 mph NW4.8 kmh NW 3.0 mph4.8 kmh 30.14 in1020.7 mb - 0.00 in0.0 mm 0.00 in0.0 mm
09:50 AM 64.3°F17.9°C 53.9°F12.2°C 69% Calm Calm 3.0 mph4.8 kmh 30.14 in1020.7 mb - 0.00 in0.0 mm 0.00 in0.0 mm
10:00 AM 65.8°F18.8°C 54.5°F12.5°C 67% Calm Calm 2.0 mph3.2 kmh 30.14 in1020.7 mb - 0.00 in0.0 mm 0.00 in0.0 mm
10:10 AM 66.2°F19.0°C 54.1°F12.3°C 65% 3.0 mph NW4.8 kmh NW 5.0 mph8.0 kmh 30.14 in1020.7 mb - 0.00 in0.0 mm 0.00 in0.0 mm
10:20 AM 65.8°F18.8°C 54.6°F12.6°C 67% 2.0 mph NW3.2 kmh NW 3.0 mph4.8 kmh 30.14 in1020.7 mb - 0.00 in0.0 mm 0.00 in0.0 mm
10:30 AM 63.8°F17.7°C 53.4°F11.9°C 69% 1.0 mph WSW1.6 kmh WSW 5.0 mph8.0 kmh 30.14 in1020.7 mb - 0.00 in0.0 mm 0.00 in0.0 mm
10:40 AM 64.2°F17.9°C 53.8°F12.1°C 69% 2.0 mph WSW3.2 kmh WSW 3.0 mph4.8 kmh 30.14 in1020.7 mb - 0.00 in0.0 mm 0.00 in0.0 mm
10:50 AM 64.5°F18.1°C 53.7°F12.1°C 68% 1.0 mph WSW1.6 kmh WSW 3.0 mph4.8 kmh 30.14 in1020.7 mb - 0.00 in0.0 mm 0.00 in0.0 mm
11:00 AM 66.5°F19.2°C 55.2°F12.9°C 67% Calm Calm 2.0 mph3.2 kmh 30.14 in1020.7 mb - 0.00 in0.0 mm 0.00 in0.0 mm
11:10 AM 67.2°F19.6°C 55.5°F13.1°C 66% 2.0 mph W3.2 kmh W 3.0 mph4.8 kmh 30.14 in1020.7 mb - 0.00 in0.0 mm 0.00 in0.0 mm
11:20 AM 67.5°F19.7°C 55.3°F12.9°C 65% 5.0 mph W8.0 kmh W 7.0 mph11.3 kmh 30.14 in1020.7 mb - 0.00 in0.0 mm 0.00 in0.0 mm
11:30 AM 67.2°F19.6°C 56.3°F13.5°C 68% 5.0 mph W8.0 kmh W 7.0 mph11.3 kmh 30.14 in1020.7 mb - 0.00 in0.0 mm 0.00 in0.0 mm
11:40 AM 66.8°F19.3°C 55.5°F13.1°C 67% 3.0 mph W4.8 kmh W 3.0 mph4.8 kmh 30.14 in1020.7 mb - 0.00 in0.0 mm 0.00 in0.0 mm
11:50 AM 67.0°F19.4°C 55.7°F13.2°C 67% 2.0 mph W3.2 kmh W 3.0 mph4.8 kmh 30.13 in1020.3 mb - 0.00 in0.0 mm 0.00 in0.0 mm
12:00 PM 68.1°F20.1°C 55.8°F13.2°C 65% 6.0 mph WNW9.7 kmh WNW 9.0 mph14.5 kmh 30.13 in1020.3 mb - 0.00 in0.0 mm 0.00 in0.0 mm
12:10 PM 68.2°F20.1°C 55.1°F12.8°C 63% 5.0 mph W8.0 kmh W 7.0 mph11.3 kmh 30.13 in1020.3 mb - 0.00 in0.0 mm 0.00 in0.0 mm
12:20 PM 68.8°F20.4°C 56.1°F13.4°C 64% 2.0 mph NW3.2 kmh NW 6.0 mph9.7 kmh 30.12 in1020.0 mb - 0.00 in0.0 mm 0.00 in0.0 mm
12:30 PM 69.0°F20.6°C 56.7°F13.7°C 65% 2.0 mph NW3.2 kmh NW 3.0 mph4.8 kmh 30.13 in1020.3 mb - 0.00 in0.0 mm 0.00 in0.0 mm
12:40 PM 69.8°F21.0°C 56.7°F13.7°C 63% 2.0 mph W3.2 kmh W 3.0 mph4.8 kmh 30.12 in1020.0 mb - 0.00 in0.0 mm 0.00 in0.0 mm
12:50 PM 69.9°F21.1°C 55.8°F13.2°C 61% 3.0 mph NW4.8 kmh NW 6.0 mph9.7 kmh 30.12 in1020.0 mb - 0.00 in0.0 mm 0.00 in0.0 mm
01:00 PM 69.5°F20.8°C 55.4°F13.0°C 61% 2.0 mph NW3.2 kmh NW 3.0 mph4.8 kmh 30.12 in1020.0 mb - 0.00 in0.0 mm 0.00 in0.0 mm
01:10 PM 70.3°F21.3°C 56.2°F13.4°C 61% 2.0 mph NNW3.2 kmh NNW 3.0 mph4.8 kmh 30.11 in1019.6 mb - 0.00 in0.0 mm 0.00 in0.0 mm
01:20 PM 70.8°F21.6°C 58.0°F14.4°C 64% 2.0 mph NW3.2 kmh NW 3.0 mph4.8 kmh 30.11 in1019.6 mb - 0.00 in0.0 mm 0.00 in0.0 mm
01:30 PM 71.2°F21.8°C 56.6°F13.7°C 60% 2.0 mph NE3.2 kmh NE 3.0 mph4.8 kmh 30.11 in1019.6 mb - 0.00 in0.0 mm 0.00 in0.0 mm
01:40 PM 71.3°F21.8°C 55.8°F13.2°C 58% 1.0 mph NW1.6 kmh NW 5.0 mph8.0 kmh 30.10 in1019.3 mb - 0.00 in0.0 mm 0.00 in0.0 mm
01:50 PM 72.0°F22.2°C 56.9°F13.8°C 59% 3.0 mph NNW4.8 kmh NNW 10.0 mph16.1 kmh 30.10 in1019.3 mb - 0.00 in0.0 mm 0.00 in0.0 mm
02:00 PM 71.2°F21.8°C 56.2°F13.4°C 59% 1.0 mph NNE1.6 kmh NNE 2.0 mph3.2 kmh 30.10 in1019.3 mb - 0.00 in0.0 mm 0.00 in0.0 mm
02:10 PM 70.1°F21.2°C 56.1°F13.4°C 61% 3.0 mph NW4.8 kmh NW 5.0 mph8.0 kmh 30.10 in1019.3 mb - 0.00 in0.0 mm 0.00 in0.0 mm
02:20 PM 71.3°F21.8°C 57.6°F14.2°C 62% 5.0 mph W8.0 kmh W 8.0 mph12.9 kmh 30.10 in1019.3 mb - 0.00 in0.0 mm 0.00 in0.0 mm
02:30 PM 71.8°F22.1°C 57.6°F14.2°C 61% 2.0 mph WNW3.2 kmh WNW 3.0 mph4.8 kmh 30.10 in1019.3 mb - 0.00 in0.0 mm 0.00 in0.0 mm
02:40 PM 71.2°F21.8°C 57.1°F13.9°C 61% 2.0 mph NW3.2 kmh NW 6.0 mph9.7 kmh 30.10 in1019.3 mb - 0.00 in0.0 mm 0.00 in0.0 mm
02:50 PM 70.5°F21.4°C 55.9°F13.3°C 60% 2.0 mph NW3.2 kmh NW 5.0 mph8.0 kmh 30.10 in1019.3 mb - 0.00 in0.0 mm 0.00 in0.0 mm
03:00 PM 71.5°F21.9°C 56.4°F13.6°C 59% 5.0 mph NW8.0 kmh NW 6.0 mph9.7 kmh 30.10 in1019.3 mb - 0.00 in0.0 mm 0.00 in0.0 mm
03:10 PM 71.9°F22.2°C 57.3°F14.1°C 60% 2.0 mph NW3.2 kmh NW 5.0 mph8.0 kmh 30.10 in1019.3 mb - 0.00 in0.0 mm 0.00 in0.0 mm
03:20 PM 71.0°F21.7°C 56.9°F13.8°C 61% 1.0 mph NNE1.6 kmh NNE 3.0 mph4.8 kmh 30.10 in1019.3 mb - 0.00 in0.0 mm 0.00 in0.0 mm
03:30 PM 71.5°F21.9°C 56.9°F13.8°C 60% 1.0 mph NNE1.6 kmh NNE 5.0 mph8.0 kmh 30.09 in1019.0 mb - 0.00 in0.0 mm 0.00 in0.0 mm
03:40 PM 71.2°F21.8°C 57.5°F14.2°C 62% 1.0 mph NE1.6 kmh NE 1.0 mph1.6 kmh 30.09 in1019.0 mb - 0.00 in0.0 mm 0.00 in0.0 mm
03:50 PM 71.2°F21.8°C 57.1°F13.9°C 61% 2.0 mph NE3.2 kmh NE 3.0 mph4.8 kmh 30.09 in1019.0 mb - 0.00 in0.0 mm 0.00 in0.0 mm
04:00 PM 71.5°F21.9°C 57.4°F14.1°C 61% 2.0 mph NE3.2 kmh NE 3.0 mph4.8 kmh 30.09 in1019.0 mb - 0.00 in0.0 mm 0.00 in0.0 mm
04:10 PM 71.3°F21.8°C 57.2°F14.0°C 61% 3.0 mph NE4.8 kmh NE 5.0 mph8.0 kmh 30.09 in1019.0 mb - 0.00 in0.0 mm 0.00 in0.0 mm
04:20 PM 71.5°F21.9°C 58.2°F14.6°C 63% 1.0 mph NE1.6 kmh NE 2.0 mph3.2 kmh 30.09 in1019.0 mb - 0.00 in0.0 mm 0.00 in0.0 mm
04:30 PM 71.0°F21.7°C 58.2°F14.6°C 64% Calm Calm 1.0 mph1.6 kmh 30.09 in1019.0 mb - 0.00 in0.0 mm 0.00 in0.0 mm
04:40 PM 71.7°F22.1°C 58.4°F14.7°C 63% 2.0 mph NNE3.2 kmh NNE 3.0 mph4.8 kmh 30.09 in1019.0 mb - 0.00 in0.0 mm 0.00 in0.0 mm
04:50 PM 71.3°F21.8°C 58.1°F14.5°C 63% 2.0 mph NE3.2 kmh NE 3.0 mph4.8 kmh 30.09 in1019.0 mb - 0.00 in0.0 mm 0.00 in0.0 mm
05:00 PM 70.2°F21.2°C 55.2°F12.9°C 59% 8.0 mph NE12.9 kmh NE 12.0 mph19.3 kmh 30.09 in1019.0 mb - 0.00 in0.0 mm 0.00 in0.0 mm
05:10 PM 67.6°F19.8°C 51.9°F11.1°C 57% 9.0 mph E14.5 kmh E 12.0 mph19.3 kmh 30.09 in1019.0 mb - 0.00 in0.0 mm 0.00 in0.0 mm
05:20 PM 66.6°F19.2°C 52.3°F11.3°C 60% 6.0 mph NE9.7 kmh NE 9.0 mph14.5 kmh 30.09 in1019.0 mb - 0.00 in0.0 mm 0.00 in0.0 mm
05:30 PM 66.3°F19.1°C 52.9°F11.6°C 62% 3.0 mph ENE4.8 kmh ENE 5.0 mph8.0 kmh 30.09 in1019.0 mb - 0.00 in0.0 mm 0.00 in0.0 mm
05:40 PM 65.8°F18.8°C 53.7°F12.1°C 65% 3.0 mph NE4.8 kmh NE 5.0 mph8.0 kmh 30.09 in1019.0 mb - 0.00 in0.0 mm 0.00 in0.0 mm
05:50 PM 66.3°F19.1°C 53.7°F12.1°C 64% Calm Calm -- 30.09 in1019.0 mb - 0.00 in0.0 mm 0.00 in0.0 mm
06:00 PM 66.8°F19.3°C 54.6°F12.6°C 65% Calm Calm -- 30.09 in1019.0 mb - 0.00 in0.0 mm 0.00 in0.0 mm
06:10 PM 66.8°F19.3°C 53.4°F11.9°C 62% Calm Calm 2.0 mph3.2 kmh 30.09 in1019.0 mb - 0.00 in0.0 mm 0.00 in0.0 mm
06:20 PM 66.5°F19.2°C 53.9°F12.2°C 64% 1.0 mph NE1.6 kmh NE 3.0 mph4.8 kmh 30.10 in1019.3 mb - 0.00 in0.0 mm 0.00 in0.0 mm
06:30 PM 66.0°F18.9°C 54.8°F12.7°C 67% Calm Calm 2.0 mph3.2 kmh 30.10 in1019.3 mb - 0.00 in0.0 mm 0.00 in0.0 mm
06:40 PM 65.7°F18.7°C 54.0°F12.2°C 66% Calm Calm 1.0 mph1.6 kmh 30.10 in1019.3 mb - 0.00 in0.0 mm 0.00 in0.0 mm
06:50 PM 65.0°F18.3°C 54.2°F12.3°C 68% 1.0 mph E1.6 kmh E 3.0 mph4.8 kmh 30.11 in1019.6 mb - 0.00 in0.0 mm 0.00 in0.0 mm
07:00 PM 64.9°F18.3°C 54.0°F12.2°C 68% Calm Calm 2.0 mph3.2 kmh 30.11 in1019.6 mb - 0.00 in0.0 mm 0.00 in0.0 mm
07:10 PM 64.3°F17.9°C 53.9°F12.2°C 69% 1.0 mph E1.6 kmh E 2.0 mph3.2 kmh 30.11 in1019.6 mb - 0.00 in0.0 mm 0.00 in0.0 mm
07:20 PM 63.3°F17.4°C 54.2°F12.3°C 72% 1.0 mph E1.6 kmh E 2.0 mph3.2 kmh 30.11 in1019.6 mb - 0.00 in0.0 mm 0.00 in0.0 mm
07:30 PM 62.1°F16.7°C 54.4°F12.4°C 76% Calm Calm -- 30.12 in1020.0 mb - 0.00 in0.0 mm 0.00 in0.0 mm
08:00 PM 52.2°F11.2°C 51.9°F11.1°C 99% Calm Calm -- 30.07 in1018.3 mb - 0.00 in0.0 mm 0.41 in10.4 mm
08:30 PM 51.9°F11.1°C 51.6°F10.9°C 99% Calm Calm -- 30.08 in1018.6 mb - 0.00 in0.0 mm 0.41 in10.4 mm
09:00 PM 50.8°F10.4°C 50.5°F10.3°C 99% Calm Calm -- 30.09 in1019.0 mb - 0.00 in0.0 mm 0.41 in10.4 mm
09:30 PM 49.8°F9.9°C 49.5°F9.7°C 99% Calm Calm -- 30.10 in1019.3 mb - 0.00 in0.0 mm 0.41 in10.4 mm
10:00 PM 49.1°F9.5°C 48.8°F9.3°C 99% Calm Calm -- 30.10 in1019.3 mb - 0.00 in0.0 mm 0.41 in10.4 mm
10:30 PM 48.5°F9.2°C 48.2°F9.0°C 99% Calm Calm -- 30.10 in1019.3 mb - 0.00 in0.0 mm 0.41 in10.4 mm
11:00 PM 48.0°F8.9°C 47.7°F8.7°C 99% Calm Calm -- 30.10 in1019.3 mb - 0.00 in0.0 mm 0.00 in0.0 mm
11:30 PM 48.0°F8.9°C 47.7°F8.7°C 99% Calm Calm -- 30.11 in1019.6 mb - 0.00 in0.0 mm 0.00 in0.0 mm